createdAt,value
2019-05-19T00:02:26.724Z,99.92
2019-05-19T00:04:53.748Z,93.20
2019-05-19T00:07:20.810Z,88.95
2019-05-19T00:09:47.648Z,91.25
2019-05-19T00:12:14.594Z,98.27
2019-05-19T00:14:41.275Z,96.28
2019-05-19T00:17:09.037Z,95.53
2019-05-19T00:19:37.898Z,95.67
2019-05-19T00:22:04.505Z,93.37
2019-05-19T00:24:31.275Z,93.87
2019-05-19T00:26:59.343Z,94.80
2019-05-19T00:29:27.981Z,93.25
2019-05-19T00:31:54.752Z,100.78
2019-05-19T00:34:21.820Z,98.85
2019-05-19T00:36:48.551Z,95.62
2019-05-19T00:39:17.558Z,97.22
2019-05-19T00:41:44.388Z,100.80
2019-05-19T00:44:11.208Z,94.95
2019-05-19T00:46:38.206Z,98.03
2019-05-19T00:49:04.982Z,94.35
2019-05-19T00:51:32.221Z,100.15
2019-05-19T00:53:59.118Z,94.52
2019-05-19T00:56:26.257Z,94.50
2019-05-19T00:58:54.068Z,95.92
2019-05-19T01:01:20.772Z,100.22
2019-05-19T01:03:47.699Z,98.55
2019-05-19T01:06:16.278Z,96.63
2019-05-19T01:08:43.215Z,97.02
2019-05-19T01:11:10.291Z,99.10
2019-05-19T01:13:37.325Z,103.32
2019-05-19T01:16:04.249Z,97.05
2019-05-19T01:18:30.823Z,98.65
2019-05-19T01:20:57.728Z,102.75
2019-05-19T01:23:24.746Z,95.55
2019-05-19T01:25:51.469Z,96.63
2019-05-19T01:28:18.076Z,102.80
2019-05-19T01:30:45.386Z,97.10
2019-05-19T01:33:12.115Z,98.97
2019-05-19T01:35:38.711Z,101.00
2019-05-19T01:38:05.618Z,100.90
2019-05-19T01:40:32.569Z,103.67
2019-05-19T01:42:59.413Z,100.12
2019-05-19T01:45:27.323Z,99.17
2019-05-19T01:47:53.838Z,100.72
2019-05-19T01:50:20.637Z,102.45
2019-05-19T01:52:47.503Z,102.38
2019-05-19T01:55:14.499Z,100.18
2019-05-19T01:57:41.303Z,103.07
2019-05-19T02:00:09.121Z,102.87
2019-05-19T02:02:36.110Z,104.00
2019-05-19T02:05:05.329Z,110.40
2019-05-19T02:07:32.159Z,97.78
2019-05-19T02:09:59.429Z,98.12
2019-05-19T02:12:26.325Z,106.43
2019-05-19T02:14:53.747Z,105.72
2019-05-19T02:17:20.747Z,103.97
2019-05-19T02:19:48.327Z,103.53
2019-05-19T02:22:15.135Z,103.72
2019-05-19T02:24:42.292Z,105.25
2019-05-19T02:27:09.442Z,102.38
2019-05-19T02:29:36.154Z,104.95
2019-05-19T02:32:03.504Z,106.03
2019-05-19T02:34:30.417Z,111.70
2019-05-19T02:36:57.273Z,105.60
2019-05-19T02:39:24.840Z,108.25
2019-05-19T02:41:52.504Z,109.15
2019-05-19T02:44:21.173Z,111.12
2019-05-19T02:46:50.319Z,105.40
2019-05-19T02:49:18.023Z,110.57
2019-05-19T02:51:47.636Z,117.05
2019-05-19T02:54:14.653Z,111.62
2019-05-19T02:56:44.559Z,109.90
2019-05-19T02:59:12.801Z,109.85
2019-05-19T03:01:58.413Z,108.67
2019-05-19T03:04:25.516Z,114.28
2019-05-19T03:06:52.865Z,107.20
2019-05-19T03:09:20.003Z,108.92
2019-05-19T03:11:47.290Z,109.20
2019-05-19T03:14:14.606Z,112.00
2019-05-19T03:16:41.812Z,113.45
2019-05-19T03:19:08.890Z,116.62
2019-05-19T03:21:36.022Z,110.48
2019-05-19T03:24:03.491Z,118.10
2019-05-19T03:26:31.675Z,121.10
2019-05-19T03:29:00.415Z,121.40
2019-05-19T03:31:29.901Z,116.62
2019-05-19T03:34:01.532Z,113.68
2019-05-19T03:36:28.820Z,104.30
2019-05-19T03:38:56.520Z,104.80
2019-05-19T03:41:23.332Z,114.30
2019-05-19T03:43:49.943Z,111.40
2019-05-19T03:46:16.769Z,111.95
2019-05-19T03:48:43.674Z,110.35
2019-05-19T03:51:27.510Z,117.10
2019-05-19T03:53:39.686Z,126.05
2019-05-19T03:56:12.528Z,150.97
2019-05-19T03:58:41.764Z,121.47
2019-05-19T04:01:08.660Z,117.53
2019-05-19T04:03:35.537Z,115.57
2019-05-19T04:06:02.838Z,117.05
2019-05-19T04:08:29.610Z,118.53
2019-05-19T04:10:56.322Z,117.22
2019-05-19T04:13:23.600Z,120.70
2019-05-19T04:15:50.167Z,118.90
2019-05-19T04:18:16.787Z,134.18
2019-05-19T04:20:43.664Z,113.25
2019-05-19T04:23:12.500Z,121.40
2019-05-19T04:25:39.884Z,116.53
2019-05-19T04:28:06.857Z,121.30
2019-05-19T04:30:35.417Z,118.67
2019-05-19T04:33:02.411Z,132.47
2019-05-19T04:35:29.110Z,129.42
2019-05-19T04:37:56.399Z,131.05
2019-05-19T04:40:23.220Z,131.65
2019-05-19T04:42:53.663Z,123.25
2019-05-19T04:45:20.677Z,120.45
2019-05-19T04:47:47.818Z,120.60
2019-05-19T04:50:14.960Z,117.87
2019-05-19T04:52:43.094Z,117.15
2019-05-19T04:55:10.519Z,124.12
2019-05-19T04:57:37.518Z,133.78
2019-05-19T05:00:07.754Z,126.97
2019-05-19T05:02:34.741Z,117.03
2019-05-19T05:05:02.005Z,118.00
2019-05-19T05:07:28.717Z,118.77
2019-05-19T05:09:55.396Z,112.68
2019-05-19T05:12:22.325Z,119.47
2019-05-19T05:14:49.250Z,116.62
2019-05-19T05:17:17.252Z,114.22
2019-05-19T05:19:44.298Z,112.12
2019-05-19T05:22:21.652Z,119.87
2019-05-19T05:24:39.319Z,119.82
2019-05-19T05:27:09.169Z,119.62
2019-05-19T05:29:35.980Z,113.10
2019-05-19T05:32:08.548Z,112.52
2019-05-19T05:34:35.350Z,115.77
2019-05-19T05:37:02.309Z,117.08
2019-05-19T05:39:28.904Z,114.70
2019-05-19T05:41:55.546Z,118.72
2019-05-19T05:44:22.403Z,110.40
2019-05-19T05:46:48.945Z,112.45
2019-05-19T05:49:15.693Z,116.33
2019-05-19T05:51:42.470Z,117.85
2019-05-19T05:54:18.223Z,111.05
2019-05-19T05:56:45.331Z,117.20
2019-05-19T05:59:12.011Z,121.30
2019-05-19T06:01:38.580Z,125.33
2019-05-19T06:04:05.392Z,128.57
2019-05-19T06:06:32.313Z,115.05
2019-05-19T06:09:00.984Z,111.88
2019-05-19T06:11:28.181Z,113.72
2019-05-19T06:13:55.162Z,109.42
2019-05-19T06:16:24.988Z,113.10
2019-05-19T06:18:52.994Z,109.60
2019-05-19T06:21:20.170Z,109.05
2019-05-19T06:23:48.023Z,115.25
2019-05-19T06:26:17.746Z,112.90
2019-05-19T06:28:48.064Z,106.37
2019-05-19T06:31:18.402Z,111.70
2019-05-19T06:33:45.205Z,111.97
2019-05-19T06:36:12.013Z,109.72
2019-05-19T06:38:38.904Z,108.47
2019-05-19T06:41:06.583Z,106.03
2019-05-19T06:43:35.199Z,109.12
2019-05-19T06:46:01.916Z,114.35
2019-05-19T06:48:28.700Z,111.65
2019-05-19T06:50:55.377Z,104.58
2019-05-19T06:53:22.066Z,108.47
2019-05-19T06:55:49.022Z,111.00
2019-05-19T06:58:15.657Z,116.37
2019-05-19T07:00:42.523Z,111.37
2019-05-19T07:03:09.403Z,137.37
2019-05-19T07:05:36.085Z,111.52
2019-05-19T07:08:02.834Z,109.30
2019-05-19T07:10:29.529Z,100.35
2019-05-19T07:12:56.289Z,99.83
2019-05-19T07:15:22.966Z,99.42
2019-05-19T07:17:49.673Z,97.02
2019-05-19T07:20:16.349Z,95.60
2019-05-19T07:22:43.074Z,94.85
2019-05-19T07:25:10.029Z,91.63
2019-05-19T07:27:36.752Z,88.42
2019-05-19T07:30:06.603Z,80.00
2019-05-19T07:32:33.236Z,83.72
2019-05-19T07:34:59.917Z,84.80
2019-05-19T07:37:26.368Z,85.12
2019-05-19T07:39:52.808Z,83.67
2019-05-19T07:42:19.484Z,84.20
2019-05-19T07:44:46.226Z,78.12
2019-05-19T07:47:12.790Z,91.12
2019-05-19T07:49:39.560Z,82.62
2019-05-19T07:52:06.510Z,77.70
2019-05-19T07:54:33.342Z,74.55
2019-05-19T07:57:00.102Z,77.95
2019-05-19T07:59:26.543Z,78.15
2019-05-19T08:01:53.124Z,73.02
2019-05-19T08:04:19.612Z,71.22
2019-05-19T08:06:46.067Z,70.15
2019-05-19T08:09:12.730Z,78.37
2019-05-19T08:11:39.476Z,67.90
2019-05-19T08:14:06.078Z,69.50
2019-05-19T08:16:33.804Z,69.30
2019-05-19T08:19:02.590Z,72.97
2019-05-19T08:21:30.179Z,65.12
2019-05-19T08:24:00.721Z,69.80
2019-05-19T08:26:27.979Z,62.58
2019-05-19T08:28:54.579Z,60.08
2019-05-19T08:31:22.997Z,61.58
2019-05-19T08:33:49.604Z,63.05
2019-05-19T08:36:16.132Z,59.18
2019-05-19T08:38:42.731Z,57.35
2019-05-19T08:41:09.265Z,56.92
2019-05-19T08:43:35.945Z,58.13
2019-05-19T08:46:02.682Z,55.48
2019-05-19T08:48:29.267Z,56.60
2019-05-19T08:50:55.721Z,57.38
2019-05-19T08:53:22.105Z,55.63
2019-05-19T08:55:48.458Z,57.50
2019-05-19T08:58:15.114Z,54.45
2019-05-19T09:00:41.834Z,58.00
2019-05-19T09:03:08.544Z,61.28
2019-05-19T09:05:35.044Z,59.38
2019-05-19T09:08:01.668Z,55.40
2019-05-19T09:10:28.160Z,58.17
2019-05-19T09:12:54.723Z,56.13
2019-05-19T09:15:21.122Z,58.98
2019-05-19T09:17:48.601Z,57.40
2019-05-19T09:20:15.334Z,59.48
2019-05-19T09:22:41.677Z,81.32
2019-05-19T09:25:10.432Z,71.90
2019-05-19T09:27:37.078Z,67.47
2019-05-19T09:30:08.677Z,68.57
2019-05-19T09:32:35.117Z,66.20
2019-05-19T09:35:01.692Z,68.85
2019-05-19T09:37:28.412Z,64.30
2019-05-19T09:39:55.136Z,65.15
2019-05-19T09:42:21.522Z,66.35
2019-05-19T09:44:51.073Z,59.05
2019-05-19T09:47:17.902Z,61.08
2019-05-19T09:49:44.457Z,74.77
2019-05-19T09:52:11.141Z,64.70
2019-05-19T09:54:45.178Z,61.15
2019-05-19T09:57:06.184Z,60.90
2019-05-19T09:59:32.915Z,59.15
2019-05-19T10:01:59.470Z,55.78
2019-05-19T10:04:25.983Z,56.23
2019-05-19T10:06:52.442Z,53.70
2019-05-19T10:09:55.280Z,55.35
2019-05-19T10:12:21.577Z,59.88
2019-05-19T10:14:48.002Z,56.53
2019-05-19T10:17:14.434Z,55.98
2019-05-19T10:19:41.435Z,58.98
2019-05-19T10:22:07.730Z,58.48
2019-05-19T10:24:34.331Z,56.55
2019-05-19T10:27:01.324Z,59.33
2019-05-19T10:29:28.599Z,58.23
2019-05-19T10:31:55.085Z,69.65
2019-05-19T10:34:21.699Z,57.85
2019-05-19T10:36:48.120Z,61.23
2019-05-19T10:39:14.580Z,59.63
2019-05-19T10:41:41.176Z,57.73
2019-05-19T10:44:07.741Z,74.60
2019-05-19T10:46:34.359Z,54.65
2019-05-19T10:49:00.831Z,54.45
2019-05-19T10:51:27.413Z,52.40
2019-05-19T10:53:54.006Z,57.83
2019-05-19T10:56:20.648Z,53.80
2019-05-19T10:58:47.203Z,54.42
2019-05-19T11:01:13.742Z,56.48
2019-05-19T11:03:40.270Z,57.83
2019-05-19T11:06:06.835Z,54.00
2019-05-19T11:08:33.253Z,50.85
2019-05-19T11:10:59.789Z,57.00
2019-05-19T11:13:26.362Z,57.58
2019-05-19T11:15:52.771Z,59.55
2019-05-19T11:18:19.345Z,55.95
2019-05-19T11:20:45.842Z,57.78
2019-05-19T11:23:12.316Z,57.20
2019-05-19T11:25:50.672Z,59.75
2019-05-19T11:28:09.325Z,58.38
2019-05-19T11:30:35.875Z,56.02
2019-05-19T11:33:02.705Z,60.45
2019-05-19T11:35:29.156Z,56.18
2019-05-19T11:37:55.614Z,66.28
2019-05-19T11:40:21.998Z,71.42
2019-05-19T11:42:48.557Z,58.08
2019-05-19T11:45:15.459Z,57.45
2019-05-19T11:47:41.899Z,55.78
2019-05-19T11:50:09.064Z,61.68
2019-05-19T11:52:35.434Z,60.67
2019-05-19T11:55:03.464Z,60.60
2019-05-19T11:57:30.023Z,57.30
2019-05-19T11:59:56.460Z,56.08
2019-05-19T12:02:24.247Z,56.75
2019-05-19T12:04:50.651Z,59.75
2019-05-19T12:07:17.109Z,58.33
2019-05-19T12:09:43.410Z,59.80
2019-05-19T12:12:09.817Z,61.15
2019-05-19T12:14:36.286Z,62.05
2019-05-19T12:17:02.991Z,60.65
2019-05-19T12:19:29.481Z,57.13
2019-05-19T12:21:57.857Z,56.13
2019-05-19T12:24:24.555Z,58.55
2019-05-19T12:26:51.122Z,56.77
2019-05-19T12:29:17.588Z,56.58
2019-05-19T12:31:44.044Z,55.40
2019-05-19T12:34:10.347Z,58.75
2019-05-19T12:36:36.682Z,55.92
2019-05-19T12:39:05.030Z,55.90
2019-05-19T12:41:32.253Z,56.15
2019-05-19T12:43:58.721Z,59.33
2019-05-19T12:46:25.122Z,51.08
2019-05-19T12:48:51.674Z,55.35
2019-05-19T12:51:18.093Z,49.83
2019-05-19T12:53:44.564Z,53.05
2019-05-19T12:56:11.017Z,49.88
2019-05-19T12:58:37.449Z,51.25
2019-05-19T13:01:03.734Z,52.13
2019-05-19T13:03:30.150Z,50.43
2019-05-19T13:05:56.446Z,50.58
2019-05-19T13:08:22.815Z,55.40
2019-05-19T13:10:49.260Z,52.38
2019-05-19T13:13:15.546Z,50.10
2019-05-19T13:15:41.872Z,52.10
2019-05-19T13:18:10.190Z,48.17
2019-05-19T13:20:37.129Z,49.67
2019-05-19T13:23:03.718Z,48.08
2019-05-19T13:25:30.108Z,48.63
2019-05-19T13:27:58.678Z,49.48
2019-05-19T13:30:25.195Z,50.52
2019-05-19T13:32:51.613Z,49.03
2019-05-19T13:35:18.165Z,49.03
2019-05-19T13:37:44.769Z,47.95
2019-05-19T13:40:11.691Z,49.58
2019-05-19T13:42:38.231Z,46.48
2019-05-19T13:45:07.507Z,49.83
2019-05-19T13:47:34.282Z,50.92
2019-05-19T13:50:00.794Z,52.98
2019-05-19T13:52:27.375Z,50.33
2019-05-19T13:54:53.943Z,53.38
2019-05-19T13:57:20.285Z,54.95
2019-05-19T13:59:46.642Z,52.15
2019-05-19T14:02:13.046Z,50.15
2019-05-19T14:04:39.497Z,50.52
2019-05-19T14:07:06.628Z,54.23
2019-05-19T14:09:33.366Z,48.52
2019-05-19T14:11:59.912Z,50.73
2019-05-19T14:14:26.221Z,51.10
2019-05-19T14:16:52.822Z,53.68
2019-05-19T14:19:19.379Z,49.63
2019-05-19T14:21:45.850Z,47.15
2019-05-19T14:24:12.330Z,46.98
2019-05-19T14:26:39.791Z,49.63
2019-05-19T14:29:06.408Z,49.50
2019-05-19T14:31:33.201Z,47.95
2019-05-19T14:33:59.952Z,48.35
2019-05-19T14:36:26.550Z,44.30
2019-05-19T14:39:05.028Z,45.85
2019-05-19T14:41:34.491Z,45.40
2019-05-19T14:44:01.497Z,46.92
2019-05-19T14:46:30.094Z,43.05
2019-05-19T14:48:56.624Z,46.77
2019-05-19T14:51:23.113Z,43.60
2019-05-19T14:53:49.800Z,46.13
2019-05-19T14:56:18.434Z,48.33
2019-05-19T14:58:45.040Z,46.37
2019-05-19T15:01:11.629Z,52.93
2019-05-19T15:03:38.216Z,47.08
2019-05-19T15:06:04.736Z,50.67
2019-05-19T15:08:31.635Z,51.13
2019-05-19T15:10:58.507Z,47.23
2019-05-19T15:13:25.172Z,50.10
2019-05-19T15:15:51.675Z,44.83
2019-05-19T15:18:18.340Z,49.50
2019-05-19T15:20:44.766Z,51.20
2019-05-19T15:23:11.360Z,48.40
2019-05-19T15:25:37.882Z,52.90
2019-05-19T15:28:05.534Z,50.60
2019-05-19T15:30:33.552Z,48.92
2019-05-19T15:32:59.941Z,47.65
2019-05-19T15:35:26.399Z,53.92
2019-05-19T15:37:52.734Z,50.98
2019-05-19T15:40:19.301Z,45.48
2019-05-19T15:42:46.304Z,47.27
2019-05-19T15:45:13.585Z,44.53
2019-05-19T15:47:40.292Z,47.80
2019-05-19T15:50:07.206Z,51.33
2019-05-19T15:52:34.889Z,51.73
2019-05-19T15:55:01.818Z,48.00
2019-05-19T15:57:28.798Z,49.83
2019-05-19T15:59:55.662Z,50.40
2019-05-19T16:02:23.265Z,47.62
2019-05-19T16:04:49.883Z,51.42
2019-05-19T16:07:17.072Z,52.67
2019-05-19T16:09:48.333Z,52.40
2019-05-19T16:14:43.882Z,52.53
2019-05-19T16:17:10.556Z,56.58
2019-05-19T16:19:37.059Z,51.70
2019-05-19T16:22:03.594Z,54.27
2019-05-19T16:24:30.409Z,52.38
2019-05-19T16:27:01.629Z,54.45
2019-05-19T16:29:29.502Z,57.57
2019-05-19T16:31:56.517Z,58.08
2019-05-19T16:34:25.259Z,53.87
2019-05-19T16:36:53.319Z,59.80
2019-05-19T16:39:22.291Z,55.60
2019-05-19T16:41:52.888Z,59.53
2019-05-19T16:44:19.936Z,54.27
2019-05-19T16:46:46.722Z,57.93
2019-05-19T16:49:13.635Z,56.95
2019-05-19T16:51:41.056Z,56.70
2019-05-19T16:54:12.417Z,57.45
2019-05-19T16:56:39.214Z,54.88
2019-05-19T16:59:06.088Z,58.63
2019-05-19T17:01:33.626Z,62.10
2019-05-19T17:04:00.933Z,61.35
2019-05-19T17:06:28.070Z,65.85
2019-05-19T17:08:54.778Z,59.48
2019-05-19T17:11:23.606Z,66.92
2019-05-19T17:13:50.452Z,63.38
2019-05-19T17:16:17.359Z,67.12
2019-05-19T17:18:44.223Z,69.75
2019-05-19T17:21:11.115Z,69.20
2019-05-19T17:23:39.502Z,66.02
2019-05-19T17:26:08.396Z,74.32
2019-05-19T17:28:42.147Z,71.33
2019-05-19T17:31:09.672Z,68.55
2019-05-19T17:33:38.165Z,74.77
2019-05-19T17:36:06.551Z,69.47
2019-05-19T17:38:34.389Z,75.55
2019-05-19T17:41:03.290Z,78.02
2019-05-19T17:43:31.086Z,76.12
2019-05-19T17:46:02.634Z,76.02
2019-05-19T17:48:31.671Z,73.42
2019-05-19T17:51:00.532Z,72.90
2019-05-19T17:53:26.975Z,71.60
2019-05-19T17:55:53.829Z,76.02
2019-05-19T17:58:23.209Z,71.97
2019-05-19T18:00:49.870Z,78.47
2019-05-19T18:03:16.920Z,77.58
2019-05-19T18:05:43.741Z,71.10
2019-05-19T18:08:10.630Z,76.77
2019-05-19T18:10:37.290Z,77.40
2019-05-19T18:13:03.910Z,84.07
2019-05-19T18:15:30.786Z,76.77
2019-05-19T18:17:59.302Z,75.62
2019-05-19T18:20:25.724Z,82.90
2019-05-19T18:22:52.195Z,81.80
2019-05-19T18:25:18.706Z,80.92
2019-05-19T18:27:45.429Z,71.67
2019-05-19T18:30:12.330Z,78.67
2019-05-19T18:32:39.106Z,71.72
2019-05-19T18:35:06.137Z,68.07
2019-05-19T18:37:33.806Z,62.08
2019-05-19T18:40:00.403Z,66.62
2019-05-19T18:42:28.905Z,60.28
2019-05-19T18:44:55.421Z,61.02
2019-05-19T18:47:22.167Z,62.70
2019-05-19T18:49:48.848Z,66.28
2019-05-19T18:52:15.654Z,65.57
2019-05-19T18:54:42.267Z,62.15
2019-05-19T18:57:10.567Z,65.72
2019-05-19T18:59:46.801Z,63.33
2019-05-19T19:02:06.007Z,67.87
2019-05-19T19:04:32.795Z,63.85
2019-05-19T19:06:59.353Z,62.40
2019-05-19T19:09:27.325Z,64.50
2019-05-19T19:11:55.782Z,66.60
2019-05-19T19:14:22.399Z,60.45
2019-05-19T19:16:49.010Z,69.95
2019-05-19T19:19:15.611Z,67.08
2019-05-19T19:21:42.040Z,67.50
2019-05-19T19:24:08.686Z,71.28
2019-05-19T19:26:35.624Z,70.95
2019-05-19T19:29:02.293Z,74.95
2019-05-19T19:31:28.944Z,70.67
2019-05-19T19:33:56.946Z,67.70
2019-05-19T19:36:23.822Z,73.87
2019-05-19T19:38:50.997Z,73.62
2019-05-19T19:41:17.618Z,74.15
2019-05-19T19:43:44.605Z,72.30
2019-05-19T19:46:11.941Z,75.85
2019-05-19T19:48:38.546Z,74.30
2019-05-19T19:51:05.246Z,77.50
2019-05-19T19:53:32.456Z,73.42
2019-05-19T19:55:59.247Z,70.25
2019-05-19T19:58:25.808Z,68.80
2019-05-19T20:00:52.442Z,75.37
2019-05-19T20:03:18.962Z,75.40
2019-05-19T20:05:47.517Z,75.03
2019-05-19T20:08:15.230Z,71.82
2019-05-19T20:10:41.937Z,74.97
2019-05-19T20:13:09.182Z,77.17
2019-05-19T20:15:37.285Z,74.35
2019-05-19T20:18:04.219Z,79.65
2019-05-19T20:20:30.911Z,77.95
2019-05-19T20:22:59.420Z,73.42
2019-05-19T20:25:26.097Z,68.85
2019-05-19T20:27:52.837Z,72.97
2019-05-19T20:30:34.576Z,72.92
2019-05-19T20:32:48.070Z,79.22
2019-05-19T20:35:14.988Z,70.90
2019-05-19T20:37:41.956Z,82.85
2019-05-19T20:40:09.949Z,78.70
2019-05-19T20:42:36.420Z,77.50
2019-05-19T20:45:03.638Z,78.57
2019-05-19T20:47:30.765Z,77.00
2019-05-19T20:49:57.491Z,76.33
2019-05-19T20:52:24.433Z,74.92
2019-05-19T20:54:53.626Z,77.27
2019-05-19T20:57:20.596Z,81.00
2019-05-19T20:59:47.223Z,79.17
2019-05-19T21:02:13.788Z,80.25
2019-05-19T21:04:40.333Z,79.40
2019-05-19T21:07:07.886Z,77.72
2019-05-19T21:09:34.498Z,85.05
2019-05-19T21:12:00.941Z,76.40
2019-05-19T21:14:27.722Z,88.97
2019-05-19T21:16:54.644Z,82.33
2019-05-19T21:19:21.625Z,90.15
2019-05-19T21:21:48.542Z,83.45
2019-05-19T21:24:16.059Z,87.20
2019-05-19T21:26:43.029Z,80.87
2019-05-19T21:29:09.642Z,80.05
2019-05-19T21:31:36.688Z,80.97
2019-05-19T21:34:03.641Z,81.35
2019-05-19T21:36:30.798Z,78.57
2019-05-19T21:38:57.576Z,80.38
2019-05-19T21:41:24.534Z,77.20
2019-05-19T21:43:51.442Z,81.12
2019-05-19T21:46:18.468Z,76.80
2019-05-19T21:48:45.192Z,75.42
2019-05-19T21:51:11.876Z,79.82
2019-05-19T21:53:38.583Z,76.70
2019-05-19T21:56:05.504Z,81.42
2019-05-19T21:58:32.488Z,72.80
2019-05-19T22:00:59.292Z,74.20
2019-05-19T22:03:26.502Z,76.40
2019-05-19T22:05:53.831Z,70.05
2019-05-19T22:08:21.807Z,71.22
2019-05-19T22:10:48.648Z,67.80
2019-05-19T22:13:15.592Z,75.60
2019-05-19T22:15:42.359Z,77.00
2019-05-19T22:18:09.051Z,82.57
2019-05-19T22:20:35.820Z,75.50
2019-05-19T22:23:02.722Z,75.45
2019-05-19T22:25:29.725Z,74.53
2019-05-19T22:27:56.540Z,76.72
2019-05-19T22:30:23.807Z,84.30
2019-05-19T22:32:50.563Z,84.58
2019-05-19T22:35:17.885Z,83.22
2019-05-19T22:37:45.127Z,78.00
2019-05-19T22:40:12.502Z,77.25
2019-05-19T22:42:39.344Z,78.90
2019-05-19T22:45:08.463Z,80.70
2019-05-19T22:47:35.651Z,78.95
2019-05-19T22:50:04.833Z,83.92
2019-05-19T22:52:33.741Z,82.97
2019-05-19T22:55:00.804Z,82.15
2019-05-19T22:57:27.507Z,81.02
2019-05-19T22:59:54.432Z,79.12
2019-05-19T23:02:21.440Z,73.72
2019-05-19T23:04:48.281Z,73.12
2019-05-19T23:07:17.221Z,74.27
2019-05-19T23:09:45.144Z,66.87
2019-05-19T23:12:11.786Z,72.75
2019-05-19T23:14:38.599Z,69.77
2019-05-19T23:17:06.818Z,72.60
2019-05-19T23:19:33.839Z,67.85
2019-05-19T23:22:00.556Z,70.55
2019-05-19T23:24:27.182Z,72.65
2019-05-19T23:26:53.894Z,63.83
2019-05-19T23:29:20.850Z,58.42
2019-05-19T23:31:47.849Z,58.92
2019-05-19T23:34:14.435Z,57.95
2019-05-19T23:36:41.105Z,62.85
2019-05-19T23:39:07.794Z,64.20
2019-05-19T23:41:34.488Z,63.95
2019-05-19T23:44:01.381Z,60.95
2019-05-19T23:46:28.981Z,60.12
2019-05-19T23:48:55.893Z,59.55
2019-05-19T23:51:25.437Z,59.13
2019-05-19T23:53:52.105Z,59.38
2019-05-19T23:56:18.994Z,59.40
2019-05-19T23:58:46.272Z,57.23
